Portada
METAR-TAF:

METAR-TAF

Aeropuertos :

Saint-Denis, Reunión

Aeropuerto de Saint Denis-Roland Garros

latitud: 20-53S, longitud: 055-31E, altitud: 21 m

Observación

El informe se hizo hace 30 minutos, a las 20:00 UTC
Viento 9 kt del este-sureste
Temperatura 25°C
Humedad 69%
Presión 1016 hPa
Visibilidad 10 km o más
sin nubes por debajo de 1500 m y sin presencia de cumulonimbus.

METAR: FMEE 162000Z AUTO 12009KT CAVOK 25/19 Q1016 NOSIG

Hora: 00:30 (20:30 UTC)

Pronóstico

El informe se hizo hace 3 horas y 30 minutos, a las 17:00 UTC
Pronóstico válido del 16 a las 18 UTC al 17 a las 24 UTC
Viento 5 kt del sureste
Visibilidad 10 km o más
Temporalmente
del 17 a las 09 UTC al 17 a las 12 UTC
chaparrones de lluvia

TAF: FMEE 161700Z 1618/1724 14005KT 9999 NSC TEMPO 1709/1712 SHRA

Observaciones y pronósticos meteorológicos de más de 4000 aeropuertos (mensajes METAR y TAF).

Los puntos amarillos y rojos representan las estaciones disponibles.

Ponga el ratón en el punto deseado para ver el nombre de la estación.

Haga clic para ver las observaciones y los pronósticos meteorológicos.

Para cambiar el mapa : haga clic en los botones verdes con una cruz de color negro para hacer un zoom, en el botón verde con un guión para alejar o en las flechas verdes para mapas adyacentes.


METAR-TAF: